createdAt,value
2017-06-18T00:00:41.906Z,9.47
2017-06-18T00:03:08.522Z,10.53
2017-06-18T00:05:35.181Z,10.27
2017-06-18T00:08:01.921Z,10.00
2017-06-18T00:10:28.540Z,9.47
2017-06-18T00:12:55.168Z,9.40
2017-06-18T00:15:22.373Z,10.37
2017-06-18T00:17:49.064Z,10.03
2017-06-18T00:20:15.596Z,10.27
2017-06-18T00:22:42.134Z,10.60
2017-06-18T00:25:08.773Z,9.77
2017-06-18T00:27:36.048Z,10.07
2017-06-18T00:30:02.874Z,10.83
2017-06-18T00:32:29.527Z,10.57
2017-06-18T00:34:56.593Z,10.40
2017-06-18T00:37:24.647Z,10.03
2017-06-18T00:39:51.285Z,10.03
2017-06-18T00:42:18.717Z,9.83
2017-06-18T00:44:45.896Z,10.93
2017-06-18T00:47:12.401Z,10.43
2017-06-18T00:49:38.962Z,10.93
2017-06-18T00:52:05.603Z,10.93
2017-06-18T00:54:33.058Z,10.80
2017-06-18T00:57:00.515Z,10.53
2017-06-18T00:59:27.153Z,10.70
2017-06-18T01:01:53.790Z,10.30
2017-06-18T01:04:20.428Z,10.70
2017-06-18T01:06:47.065Z,11.10
2017-06-18T01:09:14.735Z,10.63
2017-06-18T01:11:41.345Z,10.73
2017-06-18T01:14:07.902Z,10.60
2017-06-18T01:16:34.518Z,10.70
2017-06-18T01:19:01.177Z,12.20
2017-06-18T01:21:27.814Z,10.50
2017-06-18T01:23:54.454Z,11.17
2017-06-18T01:26:21.451Z,11.20
2017-06-18T01:28:48.756Z,11.33
2017-06-18T01:31:15.392Z,10.80
2017-06-18T01:33:42.027Z,10.60
2017-06-18T01:36:08.666Z,11.27
2017-06-18T01:38:35.304Z,11.27
2017-06-18T01:41:01.917Z,11.57
2017-06-18T01:43:28.579Z,10.83
2017-06-18T01:45:55.195Z,11.10
2017-06-18T01:48:22.060Z,10.30
2017-06-18T01:50:48.672Z,10.43
2017-06-18T01:53:15.336Z,10.97
2017-06-18T01:55:42.500Z,11.23
2017-06-18T01:58:09.842Z,11.07
2017-06-18T02:00:36.456Z,10.63
2017-06-18T02:03:03.116Z,10.90
2017-06-18T02:05:29.856Z,10.57
2017-06-18T02:07:56.495Z,10.90
2017-06-18T02:10:24.133Z,10.50
2017-06-18T02:12:50.692Z,11.10
2017-06-18T02:15:17.331Z,10.50
2017-06-18T02:17:43.967Z,10.70
2017-06-18T02:20:10.606Z,10.93
2017-06-18T02:22:37.246Z,10.67
2017-06-18T02:25:03.750Z,10.83
2017-06-18T02:27:31.139Z,11.17
2017-06-18T02:29:57.749Z,11.27
2017-06-18T02:32:24.410Z,11.50
2017-06-18T02:34:51.498Z,11.17
2017-06-18T02:37:18.535Z,10.67
2017-06-18T02:39:59.833Z,10.47
2017-06-18T02:42:41.018Z,10.83
2017-06-18T02:45:22.275Z,10.60
2017-06-18T02:48:04.091Z,10.90
2017-06-18T02:50:45.566Z,10.93
2017-06-18T02:53:27.063Z,11.50
2017-06-18T02:56:08.404Z,11.60
2017-06-18T02:58:49.976Z,11.37
2017-06-18T03:01:16.520Z,11.23
2017-06-18T03:03:58.095Z,11.53
2017-06-18T03:06:39.966Z,11.43
2017-06-18T03:09:22.194Z,10.63
2017-06-18T03:12:03.533Z,11.27
2017-06-18T03:14:44.946Z,11.33
2017-06-18T03:17:26.513Z,11.63
2017-06-18T03:20:07.835Z,11.93
2017-06-18T03:22:34.453Z,11.43
2017-06-18T03:25:01.118Z,11.50
2017-06-18T03:27:28.741Z,11.50
2017-06-18T03:29:56.034Z,11.00
2017-06-18T03:32:22.645Z,11.60
2017-06-18T03:34:49.312Z,12.07
2017-06-18T03:37:16.765Z,12.23
2017-06-18T03:39:44.012Z,11.30
2017-06-18T03:42:11.160Z,12.00
2017-06-18T03:44:37.722Z,11.77
2017-06-18T03:47:05.160Z,12.10
2017-06-18T03:49:31.798Z,11.43
2017-06-18T03:51:59.379Z,11.70
2017-06-18T03:54:26.100Z,11.37
2017-06-18T03:56:52.713Z,12.00
2017-06-18T03:59:19.353Z,11.47
2017-06-18T04:01:46.011Z,11.87
2017-06-18T04:04:13.249Z,11.60
2017-06-18T04:06:40.517Z,11.57
2017-06-18T04:09:07.637Z,11.80
2017-06-18T04:11:34.203Z,12.30
2017-06-18T04:14:00.840Z,11.33
2017-06-18T04:16:28.325Z,10.60
2017-06-18T04:18:54.934Z,11.67
2017-06-18T04:21:21.573Z,10.40
2017-06-18T04:23:48.185Z,11.07
2017-06-18T04:26:14.851Z,11.50
2017-06-18T04:28:41.487Z,10.63
2017-06-18T04:31:08.613Z,11.13
2017-06-18T04:33:50.121Z,10.90
2017-06-18T04:36:18.313Z,11.87
2017-06-18T04:39:00.862Z,11.77
2017-06-18T04:41:27.422Z,11.43
2017-06-18T04:43:54.058Z,11.33
2017-06-18T04:46:21.300Z,11.50
2017-06-18T04:48:48.863Z,12.73
2017-06-18T04:51:15.531Z,12.20
2017-06-18T04:53:42.169Z,13.23
2017-06-18T04:56:08.808Z,12.93
2017-06-18T04:58:35.445Z,13.30
2017-06-18T05:01:02.083Z,13.27
2017-06-18T05:03:29.517Z,14.17
2017-06-18T05:05:56.618Z,14.60
2017-06-18T05:08:23.225Z,15.23
2017-06-18T05:10:49.841Z,14.70
2017-06-18T05:13:16.503Z,14.00
2017-06-18T05:15:43.114Z,14.60
2017-06-18T05:18:09.675Z,15.90
2017-06-18T05:20:36.313Z,15.00
2017-06-18T05:23:02.951Z,14.20
2017-06-18T05:25:29.589Z,14.57
2017-06-18T05:27:57.044Z,13.60
2017-06-18T05:30:25.289Z,14.40
2017-06-18T05:32:51.936Z,14.47
2017-06-18T05:35:19.121Z,15.00
2017-06-18T05:37:46.192Z,15.47
2017-06-18T05:40:13.308Z,14.83
2017-06-18T05:42:39.946Z,15.37
2017-06-18T05:45:07.198Z,14.97
2017-06-18T05:47:34.662Z,14.87
2017-06-18T05:50:02.111Z,14.87
2017-06-18T05:52:29.454Z,15.10
2017-06-18T05:54:56.821Z,14.43
2017-06-18T05:57:25.627Z,15.60
2017-06-18T05:59:56.450Z,13.97
2017-06-18T06:02:26.340Z,14.97
2017-06-18T06:04:52.999Z,14.80
2017-06-18T06:07:19.637Z,14.03
2017-06-18T06:09:46.378Z,12.50
2017-06-18T06:12:12.993Z,13.97
2017-06-18T06:14:39.755Z,12.67
2017-06-18T06:17:09.062Z,12.30
2017-06-18T06:19:37.385Z,12.60
2017-06-18T06:22:03.941Z,11.77
2017-06-18T06:24:31.211Z,11.47
2017-06-18T06:26:58.269Z,11.57
2017-06-18T06:29:25.706Z,9.57
2017-06-18T06:31:52.363Z,10.00
2017-06-18T06:34:19.006Z,10.67
2017-06-18T06:36:45.640Z,9.50
2017-06-18T06:39:12.381Z,10.40
2017-06-18T06:41:40.355Z,9.87
2017-06-18T06:44:06.988Z,9.23
2017-06-18T06:46:33.603Z,7.23
2017-06-18T06:49:00.266Z,6.80
2017-06-18T06:51:27.721Z,7.20
2017-06-18T06:54:10.006Z,5.97
2017-06-18T06:56:36.662Z,6.17
2017-06-18T06:59:03.277Z,6.40
2017-06-18T07:01:29.941Z,7.03
2017-06-18T07:03:56.576Z,5.97
2017-06-18T07:06:23.848Z,5.80
2017-06-18T07:08:51.260Z,6.20
2017-06-18T07:11:17.926Z,5.37
2017-06-18T07:13:44.538Z,4.60
2017-06-18T07:16:11.200Z,4.57
2017-06-18T07:18:37.813Z,5.00
2017-06-18T07:21:04.475Z,4.53
2017-06-18T07:23:31.115Z,4.53
2017-06-18T07:25:57.753Z,5.17
2017-06-18T07:28:24.390Z,5.00
2017-06-18T07:30:51.028Z,4.97
2017-06-18T07:33:17.665Z,4.50
2017-06-18T07:35:45.419Z,5.43
2017-06-18T07:38:12.172Z,4.50
2017-06-18T07:40:38.807Z,5.20
2017-06-18T07:43:05.449Z,5.00
2017-06-18T07:45:32.084Z,4.50
2017-06-18T07:47:58.722Z,5.10
2017-06-18T07:50:25.363Z,5.10
2017-06-18T07:52:52.611Z,4.70
2017-06-18T07:55:19.198Z,4.97
2017-06-18T07:57:45.887Z,5.17
2017-06-18T08:00:12.526Z,5.50
2017-06-18T08:02:39.163Z,4.80
2017-06-18T08:05:05.801Z,4.33
2017-06-18T08:07:32.417Z,4.00
2017-06-18T08:09:59.077Z,3.97
2017-06-18T08:12:25.694Z,4.00
2017-06-18T08:14:52.353Z,3.83
2017-06-18T08:17:18.964Z,3.80
2017-06-18T08:19:45.629Z,3.57
2017-06-18T08:22:12.266Z,3.80
2017-06-18T08:24:39.277Z,3.80
2017-06-18T08:27:05.933Z,3.43
2017-06-18T08:29:33.204Z,3.07
2017-06-18T08:31:59.817Z,3.00
2017-06-18T08:34:26.479Z,3.40
2017-06-18T08:36:53.118Z,3.67
2017-06-18T08:39:19.837Z,3.37
2017-06-18T08:41:46.498Z,3.20
2017-06-18T08:44:13.748Z,3.13
2017-06-18T08:46:40.365Z,3.07
2017-06-18T08:49:07.026Z,3.13
2017-06-18T08:51:34.149Z,3.10
2017-06-18T08:54:00.812Z,3.00
2017-06-18T08:56:27.630Z,3.60
2017-06-18T08:58:54.292Z,3.00
2017-06-18T09:01:20.930Z,3.07
2017-06-18T09:03:47.557Z,2.80
2017-06-18T09:06:15.478Z,2.50
2017-06-18T09:08:42.073Z,2.77
2017-06-18T09:11:08.711Z,2.77
2017-06-18T09:13:37.833Z,2.43
2017-06-18T09:16:04.650Z,2.70
2017-06-18T09:18:31.290Z,2.50
2017-06-18T09:20:57.925Z,2.70
2017-06-18T09:23:24.534Z,2.40
2017-06-18T09:25:52.354Z,2.10
2017-06-18T09:28:19.066Z,3.00
2017-06-18T09:30:45.704Z,2.93
2017-06-18T09:33:12.322Z,2.80
2017-06-18T09:35:38.956Z,2.70
2017-06-18T09:38:05.619Z,3.07
2017-06-18T09:40:32.256Z,2.43
2017-06-18T09:42:59.486Z,2.40
2017-06-18T09:45:26.146Z,2.43
2017-06-18T09:47:52.784Z,2.70
2017-06-18T09:50:19.423Z,2.43
2017-06-18T09:52:46.060Z,2.53
2017-06-18T09:55:12.698Z,2.30
2017-06-18T09:57:39.312Z,2.63
2017-06-18T10:00:05.974Z,2.80
2017-06-18T10:02:32.611Z,2.40
2017-06-18T10:04:59.250Z,2.60
2017-06-18T10:07:25.888Z,2.57
2017-06-18T10:09:52.525Z,2.50
2017-06-18T10:12:19.266Z,2.43
2017-06-18T10:14:45.807Z,2.50
2017-06-18T10:17:12.416Z,2.20
2017-06-18T10:19:39.077Z,2.60
2017-06-18T10:22:11.654Z,2.80
2017-06-18T10:24:38.292Z,2.20
2017-06-18T10:27:04.931Z,2.50
2017-06-18T10:29:31.545Z,2.67
2017-06-18T10:31:58.822Z,2.60
2017-06-18T10:34:25.435Z,2.43
2017-06-18T10:36:52.096Z,2.20
2017-06-18T10:39:18.735Z,2.33
2017-06-18T10:41:45.375Z,2.40
2017-06-18T10:44:12.010Z,2.70
2017-06-18T10:46:53.598Z,2.00
2017-06-18T10:49:20.213Z,2.50
2017-06-18T10:51:46.874Z,2.40
2017-06-18T10:54:13.512Z,2.50
2017-06-18T10:56:40.151Z,2.37
2017-06-18T10:59:06.765Z,2.80
2017-06-18T11:01:33.429Z,2.50
2017-06-18T11:04:00.040Z,3.07
2017-06-18T11:06:26.881Z,2.77
2017-06-18T11:08:53.370Z,3.03
2017-06-18T11:11:19.957Z,2.97
2017-06-18T11:13:47.230Z,3.40
2017-06-18T11:16:13.845Z,3.37
2017-06-18T11:18:40.481Z,3.20
2017-06-18T11:21:07.143Z,2.90
2017-06-18T11:23:33.781Z,3.10
2017-06-18T11:26:00.420Z,2.97
2017-06-18T11:28:27.058Z,2.83
2017-06-18T11:30:53.698Z,3.03
2017-06-18T11:33:20.310Z,2.90
2017-06-18T11:35:46.970Z,2.93
2017-06-18T11:38:13.609Z,3.00
2017-06-18T11:40:40.225Z,3.17
2017-06-18T11:43:06.885Z,3.13
2017-06-18T11:45:33.523Z,3.00
2017-06-18T11:48:00.160Z,2.87
2017-06-18T11:50:26.798Z,3.10
2017-06-18T11:52:53.538Z,3.20
2017-06-18T11:55:20.177Z,3.13
2017-06-18T11:57:47.416Z,3.10
2017-06-18T12:00:13.965Z,3.00
2017-06-18T12:02:40.527Z,3.00
2017-06-18T12:05:07.242Z,3.00
2017-06-18T12:07:33.882Z,2.90
2017-06-18T12:10:00.516Z,3.10
2017-06-18T12:12:27.154Z,2.50
2017-06-18T12:14:53.768Z,2.93
2017-06-18T12:17:20.434Z,3.23
2017-06-18T12:19:47.068Z,3.50
2017-06-18T12:22:13.681Z,3.23
2017-06-18T12:24:40.344Z,3.00
2017-06-18T12:27:07.802Z,3.17
2017-06-18T12:29:34.440Z,3.33
2017-06-18T12:32:01.897Z,3.20
2017-06-18T12:34:28.481Z,3.60
2017-06-18T12:36:55.795Z,2.80
2017-06-18T12:39:22.426Z,3.30
2017-06-18T12:41:49.661Z,3.50
2017-06-18T12:44:16.315Z,3.97
2017-06-18T12:46:42.850Z,2.90
2017-06-18T12:49:09.488Z,3.23
2017-06-18T12:51:36.127Z,2.93
2017-06-18T12:54:03.579Z,2.90
2017-06-18T12:56:30.221Z,2.77
2017-06-18T12:58:57.464Z,2.70
2017-06-18T13:01:24.111Z,2.50
2017-06-18T13:03:50.748Z,2.90
2017-06-18T13:06:18.684Z,2.73
2017-06-18T13:08:45.254Z,2.90
2017-06-18T13:11:11.892Z,2.80
2017-06-18T13:13:38.539Z,2.90
2017-06-18T13:16:05.986Z,2.87
2017-06-18T13:18:32.624Z,2.50
2017-06-18T13:20:59.878Z,2.90
2017-06-18T13:23:26.490Z,2.63
2017-06-18T13:25:53.050Z,2.60
2017-06-18T13:28:19.688Z,2.57
2017-06-18T13:30:46.327Z,2.70
2017-06-18T13:33:12.963Z,2.70
2017-06-18T13:35:39.603Z,2.50
2017-06-18T13:38:06.241Z,2.80
2017-06-18T13:40:32.878Z,2.70
2017-06-18T13:42:59.519Z,2.60
2017-06-18T13:45:26.155Z,2.50
2017-06-18T13:47:52.791Z,2.63
2017-06-18T13:50:19.428Z,2.80
2017-06-18T13:52:46.067Z,2.53
2017-06-18T13:55:13.903Z,2.80
2017-06-18T13:57:41.072Z,2.80
2017-06-18T14:00:07.723Z,2.60
2017-06-18T14:02:34.257Z,2.53
2017-06-18T14:05:00.895Z,2.50
2017-06-18T14:07:27.533Z,2.80
2017-06-18T14:09:54.767Z,2.90
2017-06-18T14:12:22.245Z,2.67
2017-06-18T14:14:49.087Z,2.57
2017-06-18T14:17:16.298Z,2.60
2017-06-18T14:19:43.821Z,2.17
2017-06-18T14:22:11.253Z,2.60
2017-06-18T14:24:37.891Z,2.70
2017-06-18T14:27:04.505Z,2.60
2017-06-18T14:29:31.166Z,2.60
2017-06-18T14:31:57.780Z,2.40
2017-06-18T14:34:24.440Z,2.40
2017-06-18T14:36:51.059Z,2.40
2017-06-18T14:39:18.296Z,2.50
2017-06-18T14:41:45.071Z,2.60
2017-06-18T14:44:12.234Z,2.53
2017-06-18T14:46:38.961Z,2.70
2017-06-18T14:49:05.602Z,2.43
2017-06-18T14:51:33.673Z,2.93
2017-06-18T14:54:00.286Z,2.40
2017-06-18T14:56:27.153Z,2.60
2017-06-18T14:58:53.790Z,2.70
2017-06-18T15:01:20.428Z,2.27
2017-06-18T15:03:47.066Z,2.50
2017-06-18T15:06:13.705Z,2.70
2017-06-18T15:08:40.342Z,2.53
2017-06-18T15:11:06.956Z,2.30
2017-06-18T15:13:33.618Z,2.80
2017-06-18T15:16:00.228Z,2.40
2017-06-18T15:18:26.893Z,2.40
2017-06-18T15:20:53.531Z,2.50
2017-06-18T15:23:20.071Z,2.40
2017-06-18T15:25:46.602Z,2.67
2017-06-18T15:28:13.343Z,2.73
2017-06-18T15:30:39.877Z,2.60
2017-06-18T15:33:06.517Z,2.40
2017-06-18T15:35:33.483Z,2.50
2017-06-18T15:38:00.201Z,2.53
2017-06-18T15:40:26.813Z,2.43
2017-06-18T15:42:53.477Z,2.37
2017-06-18T15:45:20.116Z,2.73
2017-06-18T15:47:46.754Z,2.67
2017-06-18T15:50:13.376Z,2.30
2017-06-18T15:52:40.617Z,2.50
2017-06-18T15:55:07.895Z,2.70
2017-06-18T15:57:34.532Z,2.70
2017-06-18T16:00:01.144Z,2.90
2017-06-18T16:02:27.734Z,2.40
2017-06-18T16:04:54.348Z,2.80
2017-06-18T16:07:20.987Z,4.20
2017-06-18T16:09:47.626Z,3.37
2017-06-18T16:12:15.052Z,3.20
2017-06-18T16:14:42.042Z,2.70
2017-06-18T16:17:08.763Z,3.00
2017-06-18T16:19:35.401Z,2.73
2017-06-18T16:22:02.015Z,2.77
2017-06-18T16:24:28.678Z,2.80
2017-06-18T16:26:55.315Z,2.50
2017-06-18T16:29:21.822Z,2.70
2017-06-18T16:31:48.490Z,3.40
2017-06-18T16:34:15.126Z,2.73
2017-06-18T16:36:42.354Z,2.57
2017-06-18T16:39:09.016Z,2.70
2017-06-18T16:41:35.653Z,2.50
2017-06-18T16:44:02.498Z,2.67
2017-06-18T16:46:29.114Z,2.60
2017-06-18T16:49:11.212Z,2.80
2017-06-18T16:51:37.744Z,2.77
2017-06-18T16:54:04.793Z,3.00
2017-06-18T16:56:31.455Z,2.50
2017-06-18T16:58:58.069Z,2.60
2017-06-18T17:01:24.556Z,3.57
2017-06-18T17:03:51.165Z,2.50
2017-06-18T17:06:18.848Z,2.70
2017-06-18T17:08:45.465Z,2.43
2017-06-18T17:11:12.082Z,2.60
2017-06-18T17:13:39.560Z,3.20
2017-06-18T17:16:06.740Z,3.10
2017-06-18T17:18:33.861Z,3.23
2017-06-18T17:21:06.644Z,2.93
2017-06-18T17:23:48.230Z,2.73
2017-06-18T17:26:14.869Z,3.00
2017-06-18T17:28:42.585Z,3.13
2017-06-18T17:31:09.144Z,2.70
2017-06-18T17:33:36.273Z,2.83
2017-06-18T17:36:02.853Z,2.93
2017-06-18T17:38:29.388Z,3.30
2017-06-18T17:40:56.004Z,2.80
2017-06-18T17:43:37.410Z,3.33
2017-06-18T17:46:04.049Z,2.50
2017-06-18T17:48:31.506Z,3.20
2017-06-18T17:50:58.705Z,2.60
2017-06-18T17:53:25.396Z,2.80
2017-06-18T17:55:52.035Z,2.70
2017-06-18T17:58:19.837Z,3.00
2017-06-18T18:00:46.514Z,3.60
2017-06-18T18:03:13.176Z,2.93
2017-06-18T18:05:40.471Z,2.80
2017-06-18T18:08:07.244Z,3.23
2017-06-18T18:10:33.909Z,2.63
2017-06-18T18:13:01.926Z,2.93
2017-06-18T18:15:28.619Z,2.90
2017-06-18T18:17:55.233Z,2.60
2017-06-18T18:20:21.895Z,2.80
2017-06-18T18:22:48.523Z,2.60
2017-06-18T18:25:15.170Z,3.10
2017-06-18T18:27:41.809Z,2.83
2017-06-18T18:30:09.267Z,2.90
2017-06-18T18:32:35.905Z,2.50
2017-06-18T18:35:02.527Z,2.80
2017-06-18T18:37:29.180Z,2.70
2017-06-18T18:39:55.817Z,2.70
2017-06-18T18:42:22.960Z,3.20
2017-06-18T18:44:49.707Z,2.60
2017-06-18T18:47:16.559Z,2.90
2017-06-18T18:49:43.413Z,2.80
2017-06-18T18:52:10.143Z,2.63
2017-06-18T18:54:36.744Z,3.20
2017-06-18T18:57:03.410Z,2.87
2017-06-18T18:59:30.589Z,3.30
2017-06-18T19:01:57.401Z,2.63
2017-06-18T19:04:25.327Z,3.37
2017-06-18T19:06:52.317Z,3.00
2017-06-18T19:09:18.928Z,2.93
2017-06-18T19:11:46.616Z,3.00
2017-06-18T19:14:13.254Z,2.97
2017-06-18T19:16:40.711Z,3.00
2017-06-18T19:19:07.348Z,3.10
2017-06-18T19:21:34.396Z,3.10
2017-06-18T19:24:01.009Z,3.20
2017-06-18T19:26:28.527Z,3.10
2017-06-18T19:28:55.746Z,3.33
2017-06-18T19:31:22.485Z,3.40
2017-06-18T19:33:49.704Z,3.00
2017-06-18T19:36:17.406Z,2.90
2017-06-18T19:38:44.037Z,2.90
2017-06-18T19:41:11.992Z,3.10
2017-06-18T19:43:39.156Z,3.00
2017-06-18T19:46:06.817Z,3.17
2017-06-18T19:48:51.141Z,3.47
2017-06-18T19:51:18.117Z,3.43
2017-06-18T19:53:46.397Z,3.30
2017-06-18T19:56:13.543Z,3.30
2017-06-18T19:58:40.388Z,3.40
2017-06-18T20:01:08.251Z,3.47
2017-06-18T20:03:37.119Z,3.50
2017-06-18T20:06:05.451Z,3.30
2017-06-18T20:08:33.276Z,3.57
2017-06-18T20:11:01.792Z,3.70
2017-06-18T20:13:30.657Z,3.57
2017-06-18T20:15:58.105Z,3.80
2017-06-18T20:18:26.518Z,3.77
2017-06-18T20:20:54.156Z,3.70
2017-06-18T20:23:21.203Z,3.70
2017-06-18T20:25:47.923Z,3.53
2017-06-18T20:28:14.561Z,3.50
2017-06-18T20:30:41.840Z,3.47
2017-06-18T20:33:09.157Z,3.40
2017-06-18T20:35:51.413Z,3.70
2017-06-18T20:38:18.134Z,3.60
2017-06-18T20:40:44.769Z,3.47
2017-06-18T20:43:11.385Z,3.57
2017-06-18T20:45:38.019Z,3.27
2017-06-18T20:48:04.658Z,3.63
2017-06-18T20:50:32.140Z,3.70
2017-06-18T20:52:58.778Z,3.40
2017-06-18T20:55:25.419Z,3.80
2017-06-18T20:57:52.873Z,3.83
2017-06-18T21:00:19.513Z,3.57
2017-06-18T21:02:46.112Z,3.73
2017-06-18T21:05:12.785Z,3.70
2017-06-18T21:07:39.423Z,4.07
2017-06-18T21:10:29.208Z,3.20
2017-06-18T21:12:55.841Z,3.33
2017-06-18T21:15:22.352Z,3.27
2017-06-18T21:17:49.119Z,3.43
2017-06-18T21:20:16.369Z,3.70
2017-06-18T21:22:43.008Z,3.33
2017-06-18T21:25:09.646Z,3.40
2017-06-18T21:27:36.898Z,3.60
2017-06-18T21:30:03.535Z,3.73
2017-06-18T21:32:30.072Z,3.60
2017-06-18T21:34:56.813Z,3.83
2017-06-18T21:37:24.034Z,3.83
2017-06-18T21:39:50.577Z,3.80
2017-06-18T21:42:17.136Z,4.00
2017-06-18T21:44:44.284Z,3.73
2017-06-18T21:47:10.794Z,3.70
2017-06-18T21:49:37.459Z,3.90
2017-06-18T21:52:04.097Z,4.20
2017-06-18T21:54:31.963Z,3.90
2017-06-18T21:56:58.601Z,3.70
2017-06-18T21:59:25.212Z,3.60
2017-06-18T22:01:51.877Z,3.80
2017-06-18T22:04:18.488Z,3.73
2017-06-18T22:06:45.152Z,4.00
2017-06-18T22:09:11.764Z,3.70
2017-06-18T22:11:38.892Z,3.87
2017-06-18T22:14:05.476Z,3.97
2017-06-18T22:16:32.060Z,3.70
2017-06-18T22:18:58.724Z,3.87
2017-06-18T22:21:25.389Z,3.63
2017-06-18T22:23:51.999Z,3.57
2017-06-18T22:26:19.256Z,3.43
2017-06-18T22:28:45.810Z,3.47
2017-06-18T22:31:12.351Z,4.10
2017-06-18T22:33:38.989Z,3.70
2017-06-18T22:36:05.629Z,3.27
2017-06-18T22:38:32.266Z,3.33
2017-06-18T22:40:58.773Z,3.30
2017-06-18T22:43:25.438Z,3.37
2017-06-18T22:45:52.692Z,3.87
2017-06-18T22:48:19.329Z,3.63
2017-06-18T22:50:45.966Z,3.70
2017-06-18T22:53:12.604Z,3.50
2017-06-18T22:55:39.241Z,3.50
2017-06-18T22:58:06.500Z,3.40
2017-06-18T23:00:33.746Z,3.77
2017-06-18T23:03:00.388Z,3.67
2017-06-18T23:05:27.817Z,3.50
2017-06-18T23:07:54.479Z,3.60
2017-06-18T23:10:21.219Z,3.60
2017-06-18T23:12:47.755Z,3.23
2017-06-18T23:15:14.394Z,3.90
2017-06-18T23:17:41.005Z,3.50
2017-06-18T23:20:07.644Z,3.60
2017-06-18T23:22:34.287Z,3.43
2017-06-18T23:25:00.947Z,3.60
2017-06-18T23:27:28.402Z,3.67
2017-06-18T23:29:55.040Z,3.30
2017-06-18T23:32:21.624Z,3.47
2017-06-18T23:34:48.288Z,3.53
2017-06-18T23:37:14.953Z,3.40
2017-06-18T23:39:42.072Z,3.50
2017-06-18T23:42:09.458Z,3.70
2017-06-18T23:44:36.068Z,3.63
2017-06-18T23:47:03.852Z,3.50
2017-06-18T23:49:30.396Z,3.77
2017-06-18T23:51:56.935Z,3.80
2017-06-18T23:54:23.465Z,3.73
2017-06-18T23:56:50.107Z,3.60
2017-06-18T23:59:17.356Z,3.50
